Dai2kousei — JD2542 — position and weather

sailwx.info

Track history (hours):
 
Tides and Currents Weather Stations Pressure Air Temp Water Temp Dewpoint Dewpoint Depression Visibility Wind Speed Wind Dir Waves Ship Positions

Dai2kousei

Last reported at 2017-Mar-28 12:21 UTC. Time now 2017-Mar-28 23:37 UTC.
Position N 35°07' E 139°43'.

Length 77 m; draft 4.7 m.

MMSI: 431000467.

Date/timePositionNaut miles runAvg speedWind from/ knotsBaromVisibWave heightAir tempDewpointWater temp
2017-Mar-28 12:21N 35°07' E 139°43'810.8
2017-Mar-28 11:33N 35°15' E 139°46'1010.0
2017-Mar-28 10:33N 35°25' E 139°45'1110.8
2017-Mar-28 09:33N 35°33' E 139°54'2 0.1
2017-Mar-27 11:30N 35°34' E 139°55'9 9.6
2017-Mar-27 10:33N 35°29' E 139°46'1 1.5
2017-Mar-27 09:33N 35°29' E 139°44'0 0.0
2017-Mar-27 08:33N 35°29' E 139°44'0 0.0
2017-Mar-27 07:34N 35°29' E 139°44'0 0.0
2017-Mar-27 06:33N 35°29' E 139°44'1 1.2
2017-Mar-27 05:33N 35°29' E 139°46'0 0.1
2017-Mar-27 04:33N 35°29' E 139°46'0 0.0
2017-Mar-27 03:33N 35°29' E 139°46'0 0.1
2017-Mar-27 02:33N 35°29' E 139°46'0 0.0
2017-Mar-27 01:30N 35°29' E 139°46'0 0.0
2017-Mar-27 00:33N 35°29' E 139°46'0 0.0
2017-Mar-26 23:33N 35°29' E 139°46'0 0.0
2017-Mar-26 22:32N 35°29' E 139°46'0 0.0
2017-Mar-26 21:33N 35°29' E 139°46'0 0.0
2017-Mar-26 20:33N 35°29' E 139°46'0 0.0
2017-Mar-26 19:33N 35°29' E 139°46'0 0.0
2017-Mar-26 18:33N 35°29' E 139°46'0 0.0
2017-Mar-26 17:34N 35°29' E 139°46'6 6.0
2017-Mar-26 16:32N 35°22' E 139°45'  
2017-Mar-21 04:31N 34°60' E 139°31'1111.3
2017-Mar-21 03:33N 35°07' E 139°41'1110.8
2017-Mar-21 02:33N 35°17' E 139°45'1110.7
2017-Mar-21 01:33N 35°28' E 139°45'1 1.4
2017-Mar-21 00:33N 35°29' E 139°44'0 0.0
2017-Mar-20 23:33N 35°29' E 139°44'0 0.0
2017-Mar-20 22:33N 35°29' E 139°44'0 0.0
2017-Mar-20 21:33N 35°29' E 139°44'0 0.0
2017-Mar-20 20:33N 35°29' E 139°44'6 5.6
2017-Mar-20 19:33N 35°24' E 139°46'1010.2
2017-Mar-20 18:33N 35°13' E 139°47'1110.8
2017-Mar-20 17:33N 35°04' E 139°42'  
Track history (hours):
 
Tides and Currents Weather Stations Pressure Air Temp Water Temp Dewpoint Dewpoint Depression Visibility Wind Speed Wind Dir Waves Ship Positions

Dai2kousei

Last reported at 2017-Mar-28 12:21 UTC. Time now 2017-Mar-28 23:37 UTC.
Position N 35°07' E 139°43'.

Length 77 m; draft 4.7 m.

MMSI: 431000467.

Date/timePositionNaut miles runAvg speedWind from/ knotsBaromVisibWave heightAir tempDewpointWater temp
2017-Mar-28 12:21N 35°07' E 139°43'810.8
2017-Mar-28 11:33N 35°15' E 139°46'1010.0
2017-Mar-28 10:33N 35°25' E 139°45'1110.8
2017-Mar-28 09:33N 35°33' E 139°54'2 0.1
2017-Mar-27 11:30N 35°34' E 139°55'9 9.6
2017-Mar-27 10:33N 35°29' E 139°46'1 1.5
2017-Mar-27 09:33N 35°29' E 139°44'0 0.0
2017-Mar-27 08:33N 35°29' E 139°44'0 0.0
2017-Mar-27 07:34N 35°29' E 139°44'0 0.0
2017-Mar-27 06:33N 35°29' E 139°44'1 1.2
2017-Mar-27 05:33N 35°29' E 139°46'0 0.1
2017-Mar-27 04:33N 35°29' E 139°46'0 0.0
2017-Mar-27 03:33N 35°29' E 139°46'0 0.1
2017-Mar-27 02:33N 35°29' E 139°46'0 0.0
2017-Mar-27 01:30N 35°29' E 139°46'0 0.0
2017-Mar-27 00:33N 35°29' E 139°46'0 0.0
2017-Mar-26 23:33N 35°29' E 139°46'0 0.0
2017-Mar-26 22:32N 35°29' E 139°46'0 0.0
2017-Mar-26 21:33N 35°29' E 139°46'0 0.0
2017-Mar-26 20:33N 35°29' E 139°46'0 0.0
2017-Mar-26 19:33N 35°29' E 139°46'0 0.0
2017-Mar-26 18:33N 35°29' E 139°46'0 0.0
2017-Mar-26 17:34N 35°29' E 139°46'6 6.0
2017-Mar-26 16:32N 35°22' E 139°45'  
2017-Mar-21 04:31N 34°60' E 139°31'1111.3
2017-Mar-21 03:33N 35°07' E 139°41'1110.8
2017-Mar-21 02:33N 35°17' E 139°45'1110.7
2017-Mar-21 01:33N 35°28' E 139°45'1 1.4
2017-Mar-21 00:33N 35°29' E 139°44'0 0.0
2017-Mar-20 23:33N 35°29' E 139°44'0 0.0
2017-Mar-20 22:33N 35°29' E 139°44'0 0.0
2017-Mar-20 21:33N 35°29' E 139°44'0 0.0
2017-Mar-20 20:33N 35°29' E 139°44'6 5.6
2017-Mar-20 19:33N 35°24' E 139°46'1010.2
2017-Mar-20 18:33N 35°13' E 139°47'1110.8
2017-Mar-20 17:33N 35°04' E 139°42'  

Dump ship's entire track history